Keshan, China
Current Conditions -  °F | °C
As of 6:00 AM on Friday 24 Oct 2014 (Local Time) from ZYHB Reporting Station
Haze Haze  
Wind Chill: 52°   Ceiling: Unl
Heat Index: 52°   Visibility: 1.2mi
Dew Point: 45°   Wind: 4mph
Humidity: 76%   Direction: 160°SSE
Pressure: 29.8"   Gusts: NA
Location:  48.03°N, 125.86°E
Report Text: ZYHB 232200Z 16002MPS 2000 BR SCT020 11/07 Q1009 BECMG TL23303000
Loading
Personal Weather Stations






























Interactive Weather Map
Tropical Storm Tracking
New forecast layout! Learn more

10-Day Weather Forecast

Advertisements
Track Severe Weather on mobile